Time,TemperatureF,DewpointF,PressureIn,WindDirection,WindDirectionDegrees,WindSpeedMPH,WindSpeedGustMPH,Humidity,HourlyPrecipIn,Conditions,Clouds,dailyrainin,SoftwareType,DateUTC
2013-10-11 00:01:00,48.6,47.5,30.20,NE,36,0.0,0.0,96,0.00,,,0.00,WeatherCatV1.21B27,2013-10-11 04:01:00,
2013-10-11 00:06:00,48.6,47.5,30.20,NE,36,0.0,0.0,96,0.00,,,0.00,WeatherCatV1.21B27,2013-10-11 04:06:00,
2013-10-11 00:11:00,48.6,47.5,30.20,NE,36,0.0,0.0,96,0.00,,,0.00,WeatherCatV1.21B27,2013-10-11 04:11:00,
2013-10-11 00:16:00,48.5,47.4,30.20,NE,36,0.0,0.0,96,0.00,,,0.00,WeatherCatV1.21B27,2013-10-11 04:16:00,
2013-10-11 00:22:00,48.4,47.3,30.20,NE,36,0.0,0.0,96,0.00,,,0.00,WeatherCatV1.21B27,2013-10-11 04:22:00,
2013-10-11 00:27:00,48.4,47.3,30.20,NE,36,0.0,0.0,96,0.00,,,0.00,WeatherCatV1.21B27,2013-10-11 04:27:00,
2013-10-11 00:32:00,48.4,47.3,30.20,NE,36,0.0,0.0,96,0.00,,,0.00,WeatherCatV1.21B27,2013-10-11 04:32:00,
2013-10-11 00:37:00,48.5,47.4,30.19,NE,36,0.0,0.0,96,0.00,,,0.00,WeatherCatV1.21B27,2013-10-11 04:37:00,
2013-10-11 00:42:00,48.8,47.7,30.19,NE,36,0.0,0.0,96,0.00,,,0.00,WeatherCatV1.21B27,2013-10-11 04:42:00,
2013-10-11 00:47:00,49.0,47.9,30.19,WNW,283,0.0,0.0,96,0.00,,,0.00,WeatherCatV1.21B27,2013-10-11 04:47:00,
2013-10-11 00:52:00,49.2,48.1,30.19,WNW,283,0.0,2.0,96,0.00,,,0.00,WeatherCatV1.21B27,2013-10-11 04:52:00,
2013-10-11 00:57:00,49.3,48.2,30.19,WNW,283,0.0,0.0,96,0.00,,,0.00,WeatherCatV1.21B27,2013-10-11 04:57:00,
2013-10-11 01:02:00,49.4,48.6,30.19,WNW,283,0.0,0.0,97,0.00,,,0.00,WeatherCatV1.21B27,2013-10-11 05:02:00,
2013-10-11 01:07:00,49.5,48.7,30.19,WNW,283,0.0,0.0,97,0.00,,,0.00,WeatherCatV1.21B27,2013-10-11 05:07:00,
2013-10-11 01:12:00,49.5,48.7,30.19,WNW,283,0.0,0.0,97,0.00,,,0.00,WeatherCatV1.21B27,2013-10-11 05:12:00,
2013-10-11 01:17:00,49.5,48.7,30.19,WNW,283,2.0,2.0,97,0.00,,,0.00,WeatherCatV1.21B27,2013-10-11 05:17:00,
2013-10-11 01:22:00,49.5,48.7,30.19,WNW,283,0.0,0.0,97,0.00,,,0.00,WeatherCatV1.21B27,2013-10-11 05:22:00,
2013-10-11 01:27:00,49.5,48.7,30.18,WNW,283,0.0,0.0,97,0.00,,,0.00,WeatherCatV1.21B27,2013-10-11 05:27:00,
2013-10-11 01:32:00,49.5,48.7,30.18,WNW,283,0.0,0.0,97,0.00,,,0.00,WeatherCatV1.21B27,2013-10-11 05:32:00,
2013-10-11 01:39:00,49.5,48.7,30.18,WNW,283,0.0,0.0,97,0.00,,,0.00,WeatherCatV1.21B27,2013-10-11 05:39:00,
2013-10-11 01:44:00,49.6,48.8,30.18,WNW,283,0.0,0.0,97,0.00,,,0.00,WeatherCatV1.21B27,2013-10-11 05:44:00,
2013-10-11 01:49:00,49.6,48.8,30.17,WNW,283,0.0,0.0,97,0.00,,,0.00,WeatherCatV1.21B27,2013-10-11 05:49:00,
2013-10-11 01:54:00,49.6,48.8,30.17,WNW,283,0.0,0.0,97,0.00,,,0.00,WeatherCatV1.21B27,2013-10-11 05:54:00,
2013-10-11 01:59:00,49.6,48.8,30.17,WNW,283,0.0,2.0,97,0.00,,,0.00,WeatherCatV1.21B27,2013-10-11 05:59:00,
2013-10-11 02:04:00,49.5,48.7,30.17,WNW,283,0.0,0.0,97,0.00,,,0.00,WeatherCatV1.21B27,2013-10-11 06:04:00,
2013-10-11 02:09:00,49.5,48.7,30.17,WNW,283,0.0,1.0,97,0.00,,,0.00,WeatherCatV1.21B27,2013-10-11 06:09:00,
2013-10-11 02:14:00,49.4,48.6,30.17,WNW,283,0.0,0.0,97,0.00,,,0.00,WeatherCatV1.21B27,2013-10-11 06:14:00,
2013-10-11 02:19:00,49.4,48.6,30.17,WNW,283,0.0,0.0,97,0.00,,,0.00,WeatherCatV1.21B27,2013-10-11 06:19:00,
2013-10-11 02:24:00,49.4,48.6,30.17,WNW,283,0.0,0.0,97,0.00,,,0.00,WeatherCatV1.21B27,2013-10-11 06:24:00,
2013-10-11 02:29:00,49.4,48.6,30.17,WNW,283,0.0,0.0,97,0.00,,,0.00,WeatherCatV1.21B27,2013-10-11 06:29:00,
2013-10-11 02:34:00,49.4,48.3,30.17,WNW,283,0.0,0.0,96,0.00,,,0.00,WeatherCatV1.21B27,2013-10-11 06:34:00,
2013-10-11 02:39:00,49.4,48.3,30.17,WNW,283,0.0,0.0,96,0.00,,,0.00,WeatherCatV1.21B27,2013-10-11 06:39:00,
2013-10-11 02:44:00,49.3,48.2,30.17,WNW,283,0.0,0.0,96,0.00,,,0.00,WeatherCatV1.21B27,2013-10-11 06:44:00,
2013-10-11 02:49:00,49.2,48.1,30.17,WNW,283,0.0,0.0,96,0.00,,,0.00,WeatherCatV1.21B27,2013-10-11 06:49:00,
2013-10-11 02:54:00,49.2,48.1,30.16,WNW,283,0.0,0.0,96,0.00,,,0.00,WeatherCatV1.21B27,2013-10-11 06:54:00,
2013-10-11 02:59:00,49.0,47.9,30.16,WNW,283,0.0,0.0,96,0.00,,,0.00,WeatherCatV1.21B27,2013-10-11 06:59:00,
2013-10-11 03:04:00,48.9,47.8,30.16,WNW,283,0.0,0.0,96,0.00,,,0.00,WeatherCatV1.21B27,2013-10-11 07:04:00,
2013-10-11 03:09:00,48.8,47.7,30.16,WNW,283,0.0,0.0,96,0.00,,,0.00,WeatherCatV1.21B27,2013-10-11 07:09:00,
2013-10-11 03:14:00,48.8,47.7,30.16,WNW,283,0.0,1.0,96,0.00,,,0.00,WeatherCatV1.21B27,2013-10-11 07:14:00,
2013-10-11 03:19:00,48.7,47.9,30.16,WNW,283,0.0,0.0,97,0.00,,,0.00,WeatherCatV1.21B27,2013-10-11 07:19:00,
2013-10-11 03:24:00,48.7,47.6,30.16,WNW,283,0.0,0.0,96,0.00,,,0.00,WeatherCatV1.21B27,2013-10-11 07:24:00,
2013-10-11 03:29:00,48.6,47.5,30.16,WNW,283,0.0,0.0,96,0.00,,,0.00,WeatherCatV1.21B27,2013-10-11 07:29:00,
2013-10-11 03:34:00,48.6,47.5,30.16,WNW,283,0.0,0.0,96,0.00,,,0.00,WeatherCatV1.21B27,2013-10-11 07:34:00,
2013-10-11 03:39:00,48.5,47.4,30.16,WNW,283,0.0,0.0,96,0.00,,,0.00,WeatherCatV1.21B27,2013-10-11 07:39:00,
2013-10-11 03:44:00,48.3,47.2,30.16,WNW,283,0.0,0.0,96,0.00,,,0.00,WeatherCatV1.21B27,2013-10-11 07:44:00,
2013-10-11 03:49:00,48.2,47.1,30.16,WNW,283,0.0,0.0,96,0.00,,,0.00,WeatherCatV1.21B27,2013-10-11 07:49:00,
2013-10-11 03:54:00,48.2,47.1,30.16,WNW,283,0.0,0.0,96,0.00,,,0.00,WeatherCatV1.21B27,2013-10-11 07:54:00,
2013-10-11 04:01:00,48.1,47.3,30.16,WNW,283,0.0,0.0,97,0.00,,,0.00,WeatherCatV1.21B27,2013-10-11 08:01:00,
2013-10-11 04:06:00,48.1,47.3,30.16,WNW,283,0.0,0.0,97,0.00,,,0.00,WeatherCatV1.21B27,2013-10-11 08:06:00,
2013-10-11 04:11:00,48.1,47.3,30.16,WNW,283,0.0,0.0,97,0.00,,,0.00,WeatherCatV1.21B27,2013-10-11 08:11:00,
2013-10-11 04:16:00,48.2,47.4,30.16,WNW,283,0.0,0.0,97,0.00,,,0.00,WeatherCatV1.21B27,2013-10-11 08:16:00,
2013-10-11 04:21:00,48.2,47.1,30.16,WNW,283,0.0,1.0,96,0.00,,,0.00,WeatherCatV1.21B27,2013-10-11 08:21:00,
2013-10-11 04:26:00,48.1,47.0,30.16,WNW,283,0.0,3.0,96,0.00,,,0.00,WeatherCatV1.21B27,2013-10-11 08:26:00,
2013-10-11 04:31:00,48.1,47.0,30.16,WNW,283,0.0,0.0,96,0.00,,,0.00,WeatherCatV1.21B27,2013-10-11 08:31:00,
2013-10-11 04:36:00,48.1,47.0,30.16,WNW,283,0.0,0.0,96,0.00,,,0.00,WeatherCatV1.21B27,2013-10-11 08:36:00,
2013-10-11 04:41:00,48.2,47.1,30.16,WNW,283,0.0,0.0,96,0.00,,,0.00,WeatherCatV1.21B27,2013-10-11 08:41:00,
2013-10-11 04:46:00,48.2,48.2,30.16,WNW,283,0.0,0.0,100,0.00,,,0.00,WeatherCatV1.21B27,2013-10-11 08:46:00,
2013-10-11 04:51:00,48.2,47.1,30.16,WNW,283,0.0,0.0,96,0.00,,,0.00,WeatherCatV1.21B27,2013-10-11 08:51:00,
2013-10-11 04:56:00,48.1,47.0,30.16,WNW,283,0.0,0.0,96,0.00,,,0.00,WeatherCatV1.21B27,2013-10-11 08:56:00,
2013-10-11 05:01:00,48.0,46.9,30.16,WNW,283,0.0,0.0,96,0.00,,,0.00,WeatherCatV1.21B27,2013-10-11 09:01:00,
2013-10-11 05:06:00,47.9,46.8,30.17,WNW,283,0.0,2.0,96,0.00,,,0.00,WeatherCatV1.21B27,2013-10-11 09:06:00,
2013-10-11 05:11:00,47.8,47.0,30.16,WNW,283,0.0,1.0,97,0.00,,,0.00,WeatherCatV1.21B27,2013-10-11 09:11:00,
2013-10-11 05:16:00,47.8,47.0,30.16,WNW,283,0.0,0.0,97,0.00,,,0.00,WeatherCatV1.21B27,2013-10-11 09:16:00,
2013-10-11 05:21:00,47.7,46.9,30.16,WNW,283,0.0,0.0,97,0.00,,,0.00,WeatherCatV1.21B27,2013-10-11 09:21:00,
2013-10-11 05:26:00,47.7,46.9,30.16,WNW,283,0.0,0.0,97,0.00,,,0.00,WeatherCatV1.21B27,2013-10-11 09:26:00,
2013-10-11 05:31:00,47.6,46.8,30.16,WNW,283,0.0,0.0,97,0.00,,,0.00,WeatherCatV1.21B27,2013-10-11 09:31:00,
2013-10-11 05:36:00,47.6,46.5,30.16,WNW,283,0.0,0.0,96,0.00,,,0.00,WeatherCatV1.21B27,2013-10-11 09:36:00,
2013-10-11 05:41:00,47.5,46.4,30.16,WNW,283,3.0,3.0,96,0.00,,,0.00,WeatherCatV1.21B27,2013-10-11 09:41:00,
2013-10-11 05:46:00,47.5,46.4,30.16,WNW,283,0.0,0.0,96,0.00,,,0.00,WeatherCatV1.21B27,2013-10-11 09:46:00,
2013-10-11 05:51:00,47.6,46.8,30.17,WNW,283,0.0,0.0,97,0.00,,,0.00,WeatherCatV1.21B27,2013-10-11 09:51:00,
2013-10-11 05:56:00,47.6,46.8,30.17,WNW,283,0.0,0.0,97,0.00,,,0.00,WeatherCatV1.21B27,2013-10-11 09:56:00,
2013-10-11 06:01:00,47.7,46.9,30.17,WNW,283,0.0,0.0,97,0.00,,,0.00,WeatherCatV1.21B27,2013-10-11 10:01:00,
2013-10-11 06:06:00,47.6,46.8,30.17,WNW,283,0.0,0.0,97,0.00,,,0.00,WeatherCatV1.21B27,2013-10-11 10:06:00,
2013-10-11 06:11:00,47.6,46.8,30.17,WNW,283,0.0,0.0,97,0.00,,,0.00,WeatherCatV1.21B27,2013-10-11 10:11:00,
2013-10-11 06:16:00,47.7,46.9,30.17,WNW,283,0.0,0.0,97,0.00,,,0.00,WeatherCatV1.21B27,2013-10-11 10:16:00,
2013-10-11 06:21:00,47.7,46.9,30.17,WNW,283,0.0,0.0,97,0.00,,,0.00,WeatherCatV1.21B27,2013-10-11 10:21:00,
2013-10-11 06:26:00,47.8,47.0,30.17,WNW,283,0.0,0.0,97,0.00,,,0.00,WeatherCatV1.21B27,2013-10-11 10:26:00,
2013-10-11 06:33:00,47.9,47.1,30.17,WNW,283,0.0,0.0,97,0.00,,,0.00,WeatherCatV1.21B27,2013-10-11 10:33:00,
2013-10-11 06:38:00,47.9,47.1,30.17,WNW,283,0.0,0.0,97,0.00,,,0.00,WeatherCatV1.21B27,2013-10-11 10:38:00,
2013-10-11 06:43:00,47.9,47.1,30.17,WNW,283,0.0,0.0,97,0.00,,,0.00,WeatherCatV1.21B27,2013-10-11 10:43:00,
2013-10-11 06:48:00,47.9,47.1,30.17,WNW,283,0.0,0.0,97,0.00,,,0.00,WeatherCatV1.21B27,2013-10-11 10:48:00,
2013-10-11 06:53:00,48.0,46.9,30.17,WNW,283,0.0,1.0,96,0.00,,,0.00,WeatherCatV1.21B27,2013-10-11 10:53:00,
2013-10-11 06:58:00,48.1,47.0,30.17,WNW,283,0.0,0.0,96,0.00,,,0.00,WeatherCatV1.21B27,2013-10-11 10:58:00,
2013-10-11 07:03:00,48.1,47.0,30.16,WNW,283,0.0,0.0,96,0.00,,,0.00,WeatherCatV1.21B27,2013-10-11 11:03:00,
2013-10-11 07:08:00,48.1,47.0,30.17,WNW,283,0.0,0.0,96,0.00,,,0.00,WeatherCatV1.21B27,2013-10-11 11:08:00,
2013-10-11 07:13:00,48.1,47.0,30.17,WNW,283,0.0,0.0,96,0.00,,,0.00,WeatherCatV1.21B27,2013-10-11 11:13:00,
2013-10-11 07:18:00,48.2,48.2,30.17,WNW,283,0.0,0.0,100,0.00,,,0.00,WeatherCatV1.21B27,2013-10-11 11:18:00,
2013-10-11 07:23:00,48.3,47.5,30.17,WNW,283,0.0,0.0,97,0.00,,,0.00,WeatherCatV1.21B27,2013-10-11 11:23:00,
2013-10-11 07:28:00,48.3,47.5,30.17,WNW,283,0.0,0.0,97,0.00,,,0.00,WeatherCatV1.21B27,2013-10-11 11:28:00,
2013-10-11 07:33:00,48.4,47.6,30.17,WNW,283,0.0,2.0,97,0.00,,,0.00,WeatherCatV1.21B27,2013-10-11 11:33:00,
2013-10-11 07:38:00,48.5,47.4,30.17,WNW,283,0.0,0.0,96,0.00,,,0.00,WeatherCatV1.21B27,2013-10-11 11:38:00,
2013-10-11 07:43:00,48.6,47.5,30.17,WNW,283,0.0,0.0,96,0.00,,,0.00,WeatherCatV1.21B27,2013-10-11 11:43:00,
2013-10-11 07:48:00,48.7,47.6,30.18,WNW,283,0.0,2.0,96,0.00,,,0.00,WeatherCatV1.21B27,2013-10-11 11:48:00,
2013-10-11 07:53:00,48.8,48.0,30.17,WNW,283,0.0,1.0,97,0.00,,,0.00,WeatherCatV1.21B27,2013-10-11 11:53:00,
2013-10-11 07:58:00,49.0,48.2,30.17,WNW,283,0.0,0.0,97,0.00,,,0.00,WeatherCatV1.21B27,2013-10-11 11:58:00,
2013-10-11 08:03:00,49.1,48.0,30.17,WNW,283,0.0,3.0,96,0.00,,,0.00,WeatherCatV1.21B27,2013-10-11 12:03:00,
2013-10-11 08:08:00,49.2,48.1,30.17,WNW,283,0.0,0.0,96,0.00,,,0.00,WeatherCatV1.21B27,2013-10-11 12:08:00,
2013-10-11 08:13:00,49.3,48.2,30.17,WNW,283,0.0,0.0,96,0.00,,,0.00,WeatherCatV1.21B27,2013-10-11 12:13:00,
2013-10-11 08:18:00,49.4,48.3,30.17,WNW,283,0.0,0.0,96,0.00,,,0.00,WeatherCatV1.21B27,2013-10-11 12:18:00,
2013-10-11 08:23:00,49.6,48.5,30.17,WNW,283,0.0,0.0,96,0.00,,,0.00,WeatherCatV1.21B27,2013-10-11 12:23:00,
2013-10-11 08:28:00,49.7,48.6,30.17,WNW,284,0.0,0.0,96,0.00,,,0.00,WeatherCatV1.21B27,2013-10-11 12:28:00,
2013-10-11 08:33:00,50.0,48.9,30.17,WNW,283,0.0,0.0,96,0.00,,,0.00,WeatherCatV1.21B27,2013-10-11 12:33:00,
2013-10-11 08:38:00,50.1,49.0,30.17,WNW,284,1.0,1.0,96,0.00,,,0.00,WeatherCatV1.21B27,2013-10-11 12:38:00,
2013-10-11 08:43:00,50.4,49.3,30.17,WNW,283,0.0,0.0,96,0.00,,,0.00,WeatherCatV1.21B27,2013-10-11 12:43:00,
2013-10-11 08:48:00,50.7,49.3,30.17,WNW,286,0.0,3.0,95,0.00,,,0.00,WeatherCatV1.21B27,2013-10-11 12:48:00,
2013-10-11 08:53:00,51.1,49.4,30.17,WNW,292,0.0,6.0,94,0.00,,,0.00,WeatherCatV1.21B27,2013-10-11 12:53:00,
2013-10-11 08:58:00,51.4,49.7,30.17,WNW,292,0.0,0.0,94,0.00,,,0.00,WeatherCatV1.21B27,2013-10-11 12:58:00,
2013-10-11 09:03:00,51.8,49.8,30.17,NNW,331,0.0,1.0,93,0.00,,,0.00,WeatherCatV1.21B27,2013-10-11 13:03:00,
2013-10-11 09:08:00,52.0,49.5,30.17,NE,37,0.0,0.0,91,0.00,,,0.00,WeatherCatV1.21B27,2013-10-11 13:08:00,
2013-10-11 09:13:00,52.3,49.8,30.17,NNE,28,0.0,0.0,91,0.00,,,0.00,WeatherCatV1.21B27,2013-10-11 13:13:00,
2013-10-11 09:18:00,52.6,49.8,30.17,WSW,255,0.0,2.0,90,0.00,,,0.00,WeatherCatV1.21B27,2013-10-11 13:18:00,
2013-10-11 09:23:00,52.8,50.0,30.17,West,280,0.0,2.0,90,0.00,,,0.00,WeatherCatV1.21B27,2013-10-11 13:23:00,
2013-10-11 09:28:00,53.1,50.2,30.17,West,280,0.0,0.0,90,0.00,,,0.00,WeatherCatV1.21B27,2013-10-11 13:28:00,
2013-10-11 09:33:00,53.5,50.3,30.17,West,280,0.0,0.0,89,0.00,,,0.00,WeatherCatV1.21B27,2013-10-11 13:33:00,
2013-10-11 09:38:00,53.7,50.2,30.17,West,280,0.0,0.0,88,0.00,,,0.00,WeatherCatV1.21B27,2013-10-11 13:38:00,
2013-10-11 09:43:00,53.9,50.4,30.17,West,280,0.0,2.0,88,0.00,,,0.00,WeatherCatV1.21B27,2013-10-11 13:43:00,
2013-10-11 09:48:00,54.5,51.0,30.17,West,280,0.0,0.0,88,0.00,,,0.00,WeatherCatV1.21B27,2013-10-11 13:48:00,
2013-10-11 09:53:00,55.1,51.3,30.17,NNW,336,0.0,1.0,87,0.00,,,0.00,WeatherCatV1.21B27,2013-10-11 13:53:00,
2013-10-11 09:58:00,55.8,52.0,30.16,NNE,26,0.0,3.0,87,0.00,,,0.00,WeatherCatV1.21B27,2013-10-11 13:58:00,
2013-10-11 10:03:00,56.4,52.3,30.16,NNE,16,0.0,0.0,86,0.00,,,0.00,WeatherCatV1.21B27,2013-10-11 14:03:00,
2013-10-11 10:08:00,56.8,52.7,30.16,NNE,16,0.0,1.0,86,0.00,,,0.00,WeatherCatV1.21B27,2013-10-11 14:08:00,
2013-10-11 10:13:00,57.3,52.8,30.15,NNW,332,0.0,3.0,85,0.00,,,0.00,WeatherCatV1.21B27,2013-10-11 14:13:00,
2013-10-11 10:18:00,57.8,53.0,30.16,NNW,334,0.0,0.0,84,0.00,,,0.00,WeatherCatV1.21B27,2013-10-11 14:18:00,
2013-10-11 10:23:00,58.3,53.2,30.15,NNE,29,0.0,9.0,83,0.00,,,0.00,WeatherCatV1.21B27,2013-10-11 14:23:00,
2013-10-11 10:28:00,58.5,53.0,30.15,North,355,0.0,6.0,82,0.00,,,0.00,WeatherCatV1.21B27,2013-10-11 14:28:00,
2013-10-11 10:33:00,58.7,53.2,30.15,NE,44,4.0,4.0,82,0.00,,,0.00,WeatherCatV1.21B27,2013-10-11 14:33:00,
2013-10-11 10:38:00,59.1,53.6,30.15,NNE,24,0.0,1.0,82,0.00,,,0.00,WeatherCatV1.21B27,2013-10-11 14:38:00,
2013-10-11 10:43:00,59.8,54.0,30.14,ESE,113,0.0,2.0,81,0.00,,,0.00,WeatherCatV1.21B27,2013-10-11 14:43:00,
2013-10-11 10:48:00,60.4,54.2,30.14,ENE,62,1.0,6.0,80,0.00,,,0.00,WeatherCatV1.21B27,2013-10-11 14:48:00,
2013-10-11 10:53:00,61.2,55.0,30.14,West,279,0.0,2.0,80,0.00,,,0.00,WeatherCatV1.21B27,2013-10-11 14:53:00,
2013-10-11 10:58:00,61.7,55.1,30.14,NNE,30,1.0,1.0,79,0.00,,,0.00,WeatherCatV1.21B27,2013-10-11 14:58:00,
2013-10-11 11:03:00,62.1,55.2,30.15,NE,51,0.0,4.0,78,0.00,,,0.00,WeatherCatV1.21B27,2013-10-11 15:03:00,
2013-10-11 11:08:00,62.5,55.5,30.15,NE,41,3.0,5.0,78,0.00,,,0.00,WeatherCatV1.21B27,2013-10-11 15:08:00,
2013-10-11 11:13:00,62.8,55.5,30.15,NNW,329,0.0,3.0,77,0.00,,,0.00,WeatherCatV1.21B27,2013-10-11 15:13:00,
2013-10-11 11:18:00,63.3,56.0,30.15,NNE,28,0.0,0.0,77,0.00,,,0.00,WeatherCatV1.21B27,2013-10-11 15:18:00,
2013-10-11 11:23:00,63.6,55.5,30.15,NE,56,0.0,1.0,75,0.00,,,0.00,WeatherCatV1.21B27,2013-10-11 15:23:00,
2013-10-11 11:28:00,64.0,56.3,30.15,NNE,32,0.0,3.0,76,0.00,,,0.00,WeatherCatV1.21B27,2013-10-11 15:28:00,
2013-10-11 11:33:00,64.7,57.0,30.15,NNE,31,0.0,3.0,76,0.00,,,0.00,WeatherCatV1.21B27,2013-10-11 15:33:00,
2013-10-11 11:38:00,65.2,57.1,30.15,NNE,17,6.0,6.0,75,0.00,,,0.00,WeatherCatV1.21B27,2013-10-11 15:38:00,
2013-10-11 11:43:00,65.4,56.9,30.15,WNW,299,0.0,3.0,74,0.00,,,0.00,WeatherCatV1.21B27,2013-10-11 15:43:00,
2013-10-11 11:48:00,65.6,56.7,30.15,ENE,67,0.0,3.0,73,0.00,,,0.00,WeatherCatV1.21B27,2013-10-11 15:48:00,
2013-10-11 11:53:00,65.6,57.1,30.15,NNE,26,0.0,2.0,74,0.00,,,0.00,WeatherCatV1.21B27,2013-10-11 15:53:00,
2013-10-11 11:58:00,65.8,57.3,30.15,West,280,1.0,1.0,74,0.00,,,0.00,WeatherCatV1.21B27,2013-10-11 15:58:00,
2013-10-11 12:03:00,65.8,56.9,30.15,NE,34,6.0,6.0,73,0.00,,,0.00,WeatherCatV1.21B27,2013-10-11 16:03:00,
2013-10-11 12:08:00,65.7,56.8,30.15,NNE,28,2.0,6.0,73,0.00,,,0.00,WeatherCatV1.21B27,2013-10-11 16:08:00,
2013-10-11 12:13:00,65.7,56.8,30.15,ENE,69,2.0,5.0,73,0.00,,,0.00,WeatherCatV1.21B27,2013-10-11 16:13:00,
2013-10-11 12:18:00,66.0,57.5,30.14,WNW,297,2.0,4.0,74,0.00,,,0.00,WeatherCatV1.21B27,2013-10-11 16:18:00,
2013-10-11 12:23:00,66.4,56.7,30.15,NNE,23,0.0,0.0,71,0.00,,,0.00,WeatherCatV1.21B27,2013-10-11 16:23:00,
2013-10-11 12:28:00,66.6,56.9,30.14,ENE,69,0.0,7.0,71,0.00,,,0.00,WeatherCatV1.21B27,2013-10-11 16:28:00,
2013-10-11 12:33:00,66.8,57.1,30.14,NW,320,1.0,1.0,71,0.00,,,0.00,WeatherCatV1.21B27,2013-10-11 16:33:00,
2013-10-11 12:38:00,67.0,57.7,30.14,NE,42,2.0,6.0,72,0.00,,,0.00,WeatherCatV1.21B27,2013-10-11 16:38:00,
2013-10-11 12:43:00,66.9,57.2,30.14,ENE,76,2.0,4.0,71,0.00,,,0.00,WeatherCatV1.21B27,2013-10-11 16:43:00,
2013-10-11 12:48:00,67.0,57.7,30.14,West,268,0.0,5.0,72,0.00,,,0.00,WeatherCatV1.21B27,2013-10-11 16:48:00,
2013-10-11 12:53:00,67.0,57.3,30.14,NW,325,1.0,5.0,71,0.00,,,0.00,WeatherCatV1.21B27,2013-10-11 16:53:00,
2013-10-11 12:59:00,66.9,57.2,30.13,NE,38,4.0,4.0,71,0.00,,,0.00,WeatherCatV1.21B27,2013-10-11 16:59:00,
2013-10-11 13:04:00,66.6,56.9,30.13,East,88,0.0,1.0,71,0.00,,,0.00,WeatherCatV1.21B27,2013-10-11 17:04:00,
2013-10-11 13:09:00,66.7,57.0,30.13,ENE,58,0.0,0.0,71,0.00,,,0.00,WeatherCatV1.21B27,2013-10-11 17:09:00,
2013-10-11 13:14:00,66.8,57.1,30.13,NE,42,4.0,5.0,71,0.00,,,0.00,WeatherCatV1.21B27,2013-10-11 17:14:00,
2013-10-11 13:19:00,66.8,56.7,30.12,East,88,0.0,6.0,70,0.00,,,0.00,WeatherCatV1.21B27,2013-10-11 17:19:00,
2013-10-11 13:24:00,66.9,56.8,30.12,NE,56,3.0,3.0,70,0.00,,,0.00,WeatherCatV1.21B27,2013-10-11 17:24:00,
2013-10-11 13:29:00,67.0,57.3,30.12,NE,51,0.0,3.0,71,0.00,,,0.00,WeatherCatV1.21B27,2013-10-11 17:29:00,
2013-10-11 13:34:00,67.2,57.1,30.12,NW,319,0.0,4.0,70,0.00,,,0.00,WeatherCatV1.21B27,2013-10-11 17:34:00,
2013-10-11 13:39:00,67.4,56.9,30.12,ENE,59,0.0,1.0,69,0.00,,,0.00,WeatherCatV1.21B27,2013-10-11 17:39:00,
2013-10-11 13:44:00,67.7,56.8,30.12,North,0,0.0,6.0,68,0.00,,,0.00,WeatherCatV1.21B27,2013-10-11 17:44:00,
2013-10-11 13:49:00,68.0,57.0,30.12,NNW,337,0.0,3.0,68,0.00,,,0.00,WeatherCatV1.21B27,2013-10-11 17:49:00,
2013-10-11 13:54:00,68.0,57.0,30.12,WNW,288,0.0,1.0,68,0.00,,,0.00,WeatherCatV1.21B27,2013-10-11 17:54:00,
2013-10-11 13:59:00,68.2,56.8,30.11,ENE,69,0.0,6.0,67,0.00,,,0.00,WeatherCatV1.21B27,2013-10-11 17:59:00,
2013-10-11 14:04:00,68.3,57.3,30.11,NE,49,0.0,7.0,68,0.00,,,0.00,WeatherCatV1.21B27,2013-10-11 18:04:00,
2013-10-11 14:09:00,68.3,57.7,30.11,NW,309,0.0,5.0,69,0.00,,,0.00,WeatherCatV1.21B27,2013-10-11 18:09:00,
2013-10-11 14:14:00,68.6,57.6,30.11,North,355,0.0,0.0,68,0.00,,,0.00,WeatherCatV1.21B27,2013-10-11 18:14:00,
2013-10-11 14:19:00,68.8,57.0,30.11,NNE,32,0.0,5.0,66,0.00,,,0.00,WeatherCatV1.21B27,2013-10-11 18:19:00,
2013-10-11 14:24:00,69.0,57.6,30.11,NNE,16,0.0,3.0,67,0.00,,,0.00,WeatherCatV1.21B27,2013-10-11 18:24:00,
2013-10-11 14:29:00,69.0,57.2,30.11,NE,34,0.0,1.0,66,0.00,,,0.00,WeatherCatV1.21B27,2013-10-11 18:29:00,
2013-10-11 14:34:00,68.9,56.6,30.10,NNE,29,0.0,4.0,65,0.00,,,0.00,WeatherCatV1.21B27,2013-10-11 18:34:00,
2013-10-11 14:39:00,69.0,57.2,30.11,NE,36,0.0,6.0,66,0.00,,,0.00,WeatherCatV1.21B27,2013-10-11 18:39:00,
2013-10-11 14:44:00,69.0,56.7,30.11,NW,310,3.0,3.0,65,0.00,,,0.00,WeatherCatV1.21B27,2013-10-11 18:44:00,
2013-10-11 14:49:00,68.9,56.6,30.11,NNE,25,0.0,4.0,65,0.00,,,0.00,WeatherCatV1.21B27,2013-10-11 18:49:00,
2013-10-11 14:54:00,69.1,56.8,30.11,NNW,329,0.0,1.0,65,0.00,,,0.00,WeatherCatV1.21B27,2013-10-11 18:54:00,
2013-10-11 14:59:00,69.4,56.7,30.11,NE,50,2.0,5.0,64,0.00,,,0.00,WeatherCatV1.21B27,2013-10-11 18:59:00,
2013-10-11 15:04:00,69.3,56.2,30.11,NE,45,0.0,4.0,63,0.00,,,0.00,WeatherCatV1.21B27,2013-10-11 19:04:00,
2013-10-11 15:09:00,69.2,56.1,30.10,NNE,29,0.0,1.0,63,0.00,,,0.00,WeatherCatV1.21B27,2013-10-11 19:09:00,
2013-10-11 15:14:00,69.1,56.0,30.10,ENE,57,0.0,0.0,63,0.00,,,0.00,WeatherCatV1.21B27,2013-10-11 19:14:00,
2013-10-11 15:19:00,68.8,55.7,30.10,North,355,0.0,1.0,63,0.00,,,0.00,WeatherCatV1.21B27,2013-10-11 19:19:00,
2013-10-11 15:24:00,68.5,55.8,30.10,East,93,0.0,0.0,64,0.00,,,0.00,WeatherCatV1.21B27,2013-10-11 19:24:00,
2013-10-11 15:29:00,68.5,55.4,30.10,NW,323,0.0,1.0,63,0.00,,,0.00,WeatherCatV1.21B27,2013-10-11 19:29:00,
2013-10-11 15:36:00,68.5,55.4,30.10,NE,34,0.0,0.0,63,0.00,,,0.00,WeatherCatV1.21B27,2013-10-11 19:36:00,
2013-10-11 15:41:00,68.3,54.8,30.10,NNW,339,0.0,0.0,62,0.00,,,0.00,WeatherCatV1.21B27,2013-10-11 19:41:00,
2013-10-11 15:46:00,68.1,54.6,30.10,East,98,0.0,2.0,62,0.00,,,0.00,WeatherCatV1.21B27,2013-10-11 19:46:00,
2013-10-11 15:51:00,67.9,53.9,30.10,NE,47,0.0,1.0,61,0.00,,,0.00,WeatherCatV1.21B27,2013-10-11 19:51:00,
2013-10-11 15:56:00,67.9,54.4,30.10,NE,51,0.0,0.0,62,0.00,,,0.00,WeatherCatV1.21B27,2013-10-11 19:56:00,
2013-10-11 16:01:00,68.0,54.5,30.10,North,5,0.0,0.0,62,0.00,,,0.00,WeatherCatV1.21B27,2013-10-11 20:01:00,
2013-10-11 16:06:00,68.0,53.6,30.10,NE,40,0.0,3.0,60,0.00,,,0.00,WeatherCatV1.21B27,2013-10-11 20:06:00,
2013-10-11 16:11:00,67.9,53.5,30.10,NNE,32,0.0,0.0,60,0.00,,,0.00,WeatherCatV1.21B27,2013-10-11 20:11:00,
2013-10-11 16:16:00,67.9,53.0,30.10,West,277,1.0,1.0,59,0.00,,,0.00,WeatherCatV1.21B27,2013-10-11 20:16:00,
2013-10-11 16:21:00,67.7,53.3,30.10,NNE,21,0.0,1.0,60,0.00,,,0.00,WeatherCatV1.21B27,2013-10-11 20:21:00,
2013-10-11 16:26:00,67.5,53.1,30.10,NW,323,0.0,1.0,60,0.00,,,0.00,WeatherCatV1.21B27,2013-10-11 20:26:00,
2013-10-11 16:31:00,67.2,52.8,30.11,NE,46,0.0,0.0,60,0.00,,,0.00,WeatherCatV1.21B27,2013-10-11 20:31:00,
2013-10-11 16:36:00,66.9,53.0,30.10,NE,41,0.0,0.0,61,0.00,,,0.00,WeatherCatV1.21B27,2013-10-11 20:36:00,
2013-10-11 16:41:00,66.7,52.4,30.11,NE,37,0.0,0.0,60,0.00,,,0.00,WeatherCatV1.21B27,2013-10-11 20:41:00,
2013-10-11 16:46:00,66.4,52.1,30.11,NE,37,0.0,1.0,60,0.00,,,0.00,WeatherCatV1.21B27,2013-10-11 20:46:00,
2013-10-11 16:51:00,66.1,50.9,30.11,ENE,70,0.0,5.0,58,0.00,,,0.00,WeatherCatV1.21B27,2013-10-11 20:51:00,
2013-10-11 16:56:00,65.8,49.2,30.11,NNE,23,0.0,2.0,55,0.00,,,0.00,WeatherCatV1.21B27,2013-10-11 20:56:00,
2013-10-11 17:02:00,65.4,50.7,30.11,NNE,13,0.0,0.0,59,0.00,,,0.00,WeatherCatV1.21B27,2013-10-11 21:02:00,
2013-10-11 17:07:00,65.1,49.0,30.11,NE,40,0.0,0.0,56,0.00,,,0.00,WeatherCatV1.21B27,2013-10-11 21:07:00,
2013-10-11 17:12:00,64.9,48.3,30.11,NE,42,0.0,0.0,55,0.00,,,0.00,WeatherCatV1.21B27,2013-10-11 21:12:00,
2013-10-11 17:17:00,64.6,48.5,30.11,NE,40,0.0,0.0,56,0.00,,,0.00,WeatherCatV1.21B27,2013-10-11 21:17:00,
2013-10-11 17:22:00,64.3,46.8,30.11,NE,53,0.0,0.0,53,0.00,,,0.00,WeatherCatV1.21B27,2013-10-11 21:22:00,
2013-10-11 17:27:00,64.0,48.0,30.12,NE,53,0.0,1.0,56,0.00,,,0.00,WeatherCatV1.21B27,2013-10-11 21:27:00,
2013-10-11 17:32:00,63.6,47.6,30.12,NE,53,0.0,0.0,56,0.00,,,0.00,WeatherCatV1.21B27,2013-10-11 21:32:00,
2013-10-11 17:37:00,63.2,47.2,30.12,NE,53,0.0,0.0,56,0.00,,,0.00,WeatherCatV1.21B27,2013-10-11 21:37:00,
2013-10-11 17:42:00,62.8,47.3,30.12,NE,53,0.0,0.0,57,0.00,,,0.00,WeatherCatV1.21B27,2013-10-11 21:42:00,
2013-10-11 17:47:00,62.4,47.0,30.12,NE,53,0.0,0.0,57,0.00,,,0.00,WeatherCatV1.21B27,2013-10-11 21:47:00,
2013-10-11 17:52:00,61.9,47.9,30.12,NE,53,0.0,0.0,60,0.00,,,0.00,WeatherCatV1.21B27,2013-10-11 21:52:00,
2013-10-11 17:57:00,61.4,47.8,30.12,NE,53,0.0,0.0,61,0.00,,,0.00,WeatherCatV1.21B27,2013-10-11 21:57:00,
2013-10-11 18:02:00,60.9,47.8,30.11,NE,53,0.0,0.0,62,0.00,,,0.00,WeatherCatV1.21B27,2013-10-11 22:02:00,
2013-10-11 18:07:00,60.4,47.3,30.12,NE,53,0.0,0.0,62,0.00,,,0.00,WeatherCatV1.21B27,2013-10-11 22:07:00,
2013-10-11 18:12:00,59.8,47.2,30.12,NE,53,0.0,0.0,63,0.00,,,0.00,WeatherCatV1.21B27,2013-10-11 22:12:00,
2013-10-11 18:17:00,59.3,47.1,30.12,NE,53,0.0,0.0,64,0.00,,,0.00,WeatherCatV1.21B27,2013-10-11 22:17:00,
2013-10-11 18:22:00,58.9,47.6,30.12,NE,53,0.0,0.0,66,0.00,,,0.00,WeatherCatV1.21B27,2013-10-11 22:22:00,
2013-10-11 18:27:00,58.4,47.5,30.13,NE,53,0.0,0.0,67,0.00,,,0.00,WeatherCatV1.21B27,2013-10-11 22:27:00,
2013-10-11 18:32:00,57.8,46.9,30.13,NE,53,0.0,0.0,67,0.00,,,0.00,WeatherCatV1.21B27,2013-10-11 22:32:00,
2013-10-11 18:37:00,57.3,47.2,30.13,NE,53,0.0,0.0,69,0.00,,,0.00,WeatherCatV1.21B27,2013-10-11 22:37:00,
2013-10-11 18:42:00,56.9,47.6,30.13,NE,53,0.0,0.0,71,0.00,,,0.00,WeatherCatV1.21B27,2013-10-11 22:42:00,
2013-10-11 18:47:00,56.6,48.4,30.13,NE,53,0.0,0.0,74,0.00,,,0.00,WeatherCatV1.21B27,2013-10-11 22:47:00,
2013-10-11 18:52:00,56.2,47.3,30.14,NE,53,0.0,0.0,72,0.00,,,0.00,WeatherCatV1.21B27,2013-10-11 22:52:00,
2013-10-11 18:57:00,55.8,47.3,30.14,NE,53,0.0,0.0,73,0.00,,,0.00,WeatherCatV1.21B27,2013-10-11 22:57:00,
2013-10-11 19:02:00,55.5,47.3,30.14,NE,53,0.0,0.0,74,0.00,,,0.00,WeatherCatV1.21B27,2013-10-11 23:02:00,
2013-10-11 19:07:00,55.3,48.2,30.14,NE,53,0.0,0.0,77,0.00,,,0.00,WeatherCatV1.21B27,2013-10-11 23:07:00,
2013-10-11 19:12:00,55.1,48.0,30.14,NE,53,0.0,0.0,77,0.00,,,0.00,WeatherCatV1.21B27,2013-10-11 23:12:00,
2013-10-11 19:17:00,55.0,48.3,30.14,NE,53,0.0,0.0,78,0.00,,,0.00,WeatherCatV1.21B27,2013-10-11 23:17:00,
2013-10-11 19:22:00,54.9,48.5,30.14,NE,53,0.0,0.0,79,0.00,,,0.00,WeatherCatV1.21B27,2013-10-11 23:22:00,
2013-10-11 19:27:00,54.8,48.8,30.14,NE,53,0.0,0.0,80,0.00,,,0.00,WeatherCatV1.21B27,2013-10-11 23:27:00,
2013-10-11 19:32:00,54.7,48.7,30.14,NE,53,0.0,0.0,80,0.00,,,0.00,WeatherCatV1.21B27,2013-10-11 23:32:00,
2013-10-11 19:37:00,54.6,48.9,30.14,NE,53,0.0,0.0,81,0.00,,,0.00,WeatherCatV1.21B27,2013-10-11 23:37:00,
2013-10-11 19:42:00,54.5,48.8,30.14,NE,53,0.0,0.0,81,0.00,,,0.00,WeatherCatV1.21B27,2013-10-11 23:42:00,
2013-10-11 19:47:00,54.4,49.0,30.15,NE,53,0.0,0.0,82,0.00,,,0.00,WeatherCatV1.21B27,2013-10-11 23:47:00,
2013-10-11 19:52:00,54.3,48.9,30.15,NE,53,0.0,0.0,82,0.00,,,0.00,WeatherCatV1.21B27,2013-10-11 23:52:00,
2013-10-11 19:57:00,54.3,48.9,30.15,NE,53,0.0,0.0,82,0.00,,,0.00,WeatherCatV1.21B27,2013-10-11 23:57:00,
2013-10-11 20:02:00,54.3,49.2,30.15,NE,53,0.0,0.0,83,0.00,,,0.00,WeatherCatV1.21B27,2013-10-12 00:02:00,
2013-10-11 20:07:00,54.2,49.5,30.15,NE,53,0.0,0.0,84,0.00,,,0.00,WeatherCatV1.21B27,2013-10-12 00:07:00,
2013-10-11 20:12:00,54.1,49.7,30.15,NE,53,0.0,0.0,85,0.00,,,0.00,WeatherCatV1.21B27,2013-10-12 00:12:00,
2013-10-11 20:17:00,54.0,49.3,30.15,NE,53,0.0,0.0,84,0.00,,,0.00,WeatherCatV1.21B27,2013-10-12 00:17:00,
2013-10-11 20:22:00,53.9,49.2,30.15,NE,53,0.0,1.0,84,0.00,,,0.00,WeatherCatV1.21B27,2013-10-12 00:22:00,
2013-10-11 20:27:00,53.8,49.1,30.15,NE,53,0.0,0.0,84,0.00,,,0.00,WeatherCatV1.21B27,2013-10-12 00:27:00,
2013-10-11 20:32:00,53.8,48.8,30.15,NE,53,0.0,1.0,83,0.00,,,0.00,WeatherCatV1.21B27,2013-10-12 00:32:00,
2013-10-11 20:37:00,53.9,49.5,30.15,NE,53,0.0,0.0,85,0.00,,,0.00,WeatherCatV1.21B27,2013-10-12 00:37:00,
2013-10-11 20:42:00,53.9,49.5,30.15,NE,53,0.0,0.0,85,0.00,,,0.00,WeatherCatV1.21B27,2013-10-12 00:42:00,
2013-10-11 20:47:00,53.8,49.4,30.15,NE,53,0.0,0.0,85,0.00,,,0.00,WeatherCatV1.21B27,2013-10-12 00:47:00,
2013-10-11 20:52:00,53.7,49.3,30.15,NE,53,0.0,0.0,85,0.00,,,0.00,WeatherCatV1.21B27,2013-10-12 00:52:00,
2013-10-11 20:57:00,53.6,48.9,30.15,NE,53,0.0,0.0,84,0.00,,,0.00,WeatherCatV1.21B27,2013-10-12 00:57:00,
2013-10-11 21:02:00,53.5,48.8,30.15,NE,53,0.0,0.0,84,0.00,,,0.00,WeatherCatV1.21B27,2013-10-12 01:02:00,
2013-10-11 21:07:00,53.4,48.4,30.15,NE,53,0.0,0.0,83,0.00,,,0.00,WeatherCatV1.21B27,2013-10-12 01:07:00,
2013-10-11 21:12:00,53.3,48.3,30.16,NE,53,0.0,0.0,83,0.00,,,0.00,WeatherCatV1.21B27,2013-10-12 01:12:00,
2013-10-11 21:17:00,53.2,48.5,30.16,NE,53,0.0,0.0,84,0.00,,,0.00,WeatherCatV1.21B27,2013-10-12 01:17:00,
2013-10-11 21:22:00,53.1,48.7,30.16,NE,53,0.0,0.0,85,0.00,,,0.00,WeatherCatV1.21B27,2013-10-12 01:22:00,
2013-10-11 21:27:00,53.0,48.6,30.16,NE,53,0.0,0.0,85,0.00,,,0.00,WeatherCatV1.21B27,2013-10-12 01:27:00,
2013-10-11 21:32:00,52.8,48.1,30.16,NE,53,0.0,0.0,84,0.00,,,0.00,WeatherCatV1.21B27,2013-10-12 01:32:00,
2013-10-11 21:37:00,52.5,47.8,30.17,NE,53,0.0,0.0,84,0.00,,,0.00,WeatherCatV1.21B27,2013-10-12 01:37:00,
2013-10-11 21:42:00,52.4,47.7,30.17,NE,53,0.0,0.0,84,0.00,,,0.00,WeatherCatV1.21B27,2013-10-12 01:42:00,
2013-10-11 21:47:00,52.2,47.8,30.17,NE,53,0.0,0.0,85,0.00,,,0.00,WeatherCatV1.21B27,2013-10-12 01:47:00,
2013-10-11 21:52:00,52.1,47.7,30.17,NE,53,0.0,0.0,85,0.00,,,0.00,WeatherCatV1.21B27,2013-10-12 01:52:00,
2013-10-11 21:57:00,51.9,47.5,30.17,NE,53,0.0,0.0,85,0.00,,,0.00,WeatherCatV1.21B27,2013-10-12 01:57:00,
2013-10-11 22:02:00,51.8,47.8,30.17,NE,53,0.0,0.0,86,0.00,,,0.00,WeatherCatV1.21B27,2013-10-12 02:02:00,
2013-10-11 22:07:00,51.7,47.3,30.17,NE,53,0.0,0.0,85,0.00,,,0.00,WeatherCatV1.21B27,2013-10-12 02:07:00,
2013-10-11 22:12:00,51.6,47.2,30.17,NE,53,0.0,0.0,85,0.00,,,0.00,WeatherCatV1.21B27,2013-10-12 02:12:00,
2013-10-11 22:17:00,51.5,47.8,30.17,NE,53,0.0,0.0,87,0.00,,,0.00,WeatherCatV1.21B27,2013-10-12 02:17:00,
2013-10-11 22:22:00,51.4,47.7,30.17,NE,53,0.0,0.0,87,0.00,,,0.00,WeatherCatV1.21B27,2013-10-12 02:22:00,
2013-10-11 22:27:00,51.3,47.2,30.17,NE,53,0.0,0.0,86,0.00,,,0.00,WeatherCatV1.21B27,2013-10-12 02:27:00,
2013-10-11 22:32:00,51.1,47.1,30.17,NE,53,0.0,0.0,86,0.00,,,0.00,WeatherCatV1.21B27,2013-10-12 02:32:00,
2013-10-11 22:37:00,51.0,47.0,30.17,NE,53,0.0,0.0,86,0.00,,,0.00,WeatherCatV1.21B27,2013-10-12 02:37:00,
2013-10-11 22:42:00,50.8,46.8,30.17,NE,53,0.0,0.0,86,0.00,,,0.00,WeatherCatV1.21B27,2013-10-12 02:42:00,
2013-10-11 22:47:00,50.7,46.7,30.17,NE,53,0.0,0.0,86,0.00,,,0.00,WeatherCatV1.21B27,2013-10-12 02:47:00,
2013-10-11 22:52:00,50.6,46.9,30.17,NE,53,0.0,0.0,87,0.00,,,0.00,WeatherCatV1.21B27,2013-10-12 02:52:00,
2013-10-11 22:57:00,50.5,46.5,30.17,NE,53,0.0,0.0,86,0.00,,,0.00,WeatherCatV1.21B27,2013-10-12 02:57:00,
2013-10-11 23:02:00,50.4,46.1,30.17,NE,53,0.0,0.0,85,0.00,,,0.00,WeatherCatV1.21B27,2013-10-12 03:02:00,
2013-10-11 23:07:00,50.3,46.3,30.17,NE,53,0.0,0.0,86,0.00,,,0.00,WeatherCatV1.21B27,2013-10-12 03:07:00,
2013-10-11 23:12:00,50.3,46.6,30.17,NE,53,0.0,0.0,87,0.00,,,0.00,WeatherCatV1.21B27,2013-10-12 03:12:00,
2013-10-11 23:17:00,50.3,46.6,30.17,NE,53,0.0,0.0,87,0.00,,,0.00,WeatherCatV1.21B27,2013-10-12 03:17:00,
2013-10-11 23:22:00,50.1,46.1,30.17,NE,53,0.0,0.0,86,0.00,,,0.00,WeatherCatV1.21B27,2013-10-12 03:22:00,
2013-10-11 23:27:00,50.1,46.1,30.17,NE,53,0.0,0.0,86,0.00,,,0.00,WeatherCatV1.21B27,2013-10-12 03:27:00,
2013-10-11 23:32:00,50.0,46.0,30.17,NE,53,0.0,0.0,86,0.00,,,0.00,WeatherCatV1.21B27,2013-10-12 03:32:00,
2013-10-11 23:37:00,50.0,46.0,30.17,NE,53,0.0,0.0,86,0.00,,,0.00,WeatherCatV1.21B27,2013-10-12 03:37:00,
2013-10-11 23:42:00,50.0,46.0,30.17,NE,53,0.0,0.0,86,0.00,,,0.00,WeatherCatV1.21B27,2013-10-12 03:42:00,
2013-10-11 23:47:00,50.1,46.7,30.17,NE,53,0.0,0.0,88,0.00,,,0.00,WeatherCatV1.21B27,2013-10-12 03:47:00,
2013-10-11 23:52:00,50.1,46.4,30.17,NE,53,0.0,0.0,87,0.00,,,0.00,WeatherCatV1.21B27,2013-10-12 03:52:00,
2013-10-11 23:57:00,50.0,46.3,30.17,NE,53,0.0,0.0,87,0.00,,,0.00,WeatherCatV1.21B27,2013-10-12 03:57:00,